Terminal Aerodrome Forecast
Issued by NWS

Home | Current Version | Previous Version | Text Only | Print | Product List | Glossary On
Versions: 1 2 3 4 5 6 7 8 9 10 11 12 13 14 15 16 17 18 19 20 21 22 23 24
000
FTUS43 KJKL 022300 RRA
TAFSME
TAF
KSME 022347Z 0300/0324 VRB03KT P6SM SCT080 OVC250
     FM030300 00000KT 4SM BR SCT080 OVC250
     FM030700 00000KT 1/2SM FG OVC002
     FM031300 00000KT 4SM HZ OVC007
     FM031400 00000KT P6SM OVC015
     FM031500 00000KT P6SM OVC050=

USA.gov is the U.S. government's official web portal to all federal, state and local government web resources and services.